sensor_id;sensor_type;location;lat;lon;timestamp;temperature;humidity
2647;DHT22;1333;50.958;6.770;2023-05-19T00:01:30;9.50;99.90
2647;DHT22;1333;50.958;6.770;2023-05-19T00:03:57;9.50;99.90
2647;DHT22;1333;50.958;6.770;2023-05-19T00:06:27;9.50;99.90
2647;DHT22;1333;50.958;6.770;2023-05-19T00:08:58;9.40;99.90
2647;DHT22;1333;50.958;6.770;2023-05-19T00:11:25;9.40;99.90
2647;DHT22;1333;50.958;6.770;2023-05-19T00:13:55;9.40;99.90
2647;DHT22;1333;50.958;6.770;2023-05-19T00:16:22;9.30;99.90
2647;DHT22;1333;50.958;6.770;2023-05-19T00:18:48;9.30;99.90
2647;DHT22;1333;50.958;6.770;2023-05-19T00:21:14;9.30;99.90
2647;DHT22;1333;50.958;6.770;2023-05-19T00:23:41;9.20;99.90
2647;DHT22;1333;50.958;6.770;2023-05-19T00:26:06;9.20;99.90
2647;DHT22;1333;50.958;6.770;2023-05-19T00:28:32;9.20;99.90
2647;DHT22;1333;50.958;6.770;2023-05-19T00:30:57;9.20;99.90
2647;DHT22;1333;50.958;6.770;2023-05-19T00:33:23;9.10;99.90
2647;DHT22;1333;50.958;6.770;2023-05-19T00:35:48;9.10;99.90
2647;DHT22;1333;50.958;6.770;2023-05-19T00:38:14;9.10;99.90
2647;DHT22;1333;50.958;6.770;2023-05-19T00:40:39;9.10;99.90
2647;DHT22;1333;50.958;6.770;2023-05-19T00:43:05;9.00;99.90
2647;DHT22;1333;50.958;6.770;2023-05-19T00:45:33;9.00;99.90
2647;DHT22;1333;50.958;6.770;2023-05-19T00:47:58;9.00;99.90
2647;DHT22;1333;50.958;6.770;2023-05-19T00:50:24;9.00;99.90
2647;DHT22;1333;50.958;6.770;2023-05-19T00:52:51;8.90;99.90
2647;DHT22;1333;50.958;6.770;2023-05-19T00:55:17;8.90;99.90
2647;DHT22;1333;50.958;6.770;2023-05-19T00:57:43;8.90;99.90
2647;DHT22;1333;50.958;6.770;2023-05-19T01:00:10;8.90;99.90
2647;DHT22;1333;50.958;6.770;2023-05-19T01:02:36;8.90;99.90
2647;DHT22;1333;50.958;6.770;2023-05-19T01:05:05;8.80;99.90
2647;DHT22;1333;50.958;6.770;2023-05-19T01:07:31;8.80;99.90
2647;DHT22;1333;50.958;6.770;2023-05-19T01:09:57;8.80;99.90
2647;DHT22;1333;50.958;6.770;2023-05-19T01:12:23;8.80;99.90
2647;DHT22;1333;50.958;6.770;2023-05-19T01:14:49;8.80;99.90
2647;DHT22;1333;50.958;6.770;2023-05-19T01:20:15;8.70;99.90
2647;DHT22;1333;50.958;6.770;2023-05-19T01:25:52;8.70;99.90
2647;DHT22;1333;50.958;6.770;2023-05-19T01:29:02;8.70;99.90
2647;DHT22;1333;50.958;6.770;2023-05-19T01:31:32;8.60;99.90
2647;DHT22;1333;50.958;6.770;2023-05-19T01:34:00;8.60;99.90
2647;DHT22;1333;50.958;6.770;2023-05-19T01:36:30;8.60;99.90
2647;DHT22;1333;50.958;6.770;2023-05-19T01:38:58;8.50;99.90
2647;DHT22;1333;50.958;6.770;2023-05-19T01:41:25;8.50;99.90
2647;DHT22;1333;50.958;6.770;2023-05-19T01:43:53;8.50;99.90
2647;DHT22;1333;50.958;6.770;2023-05-19T01:46:18;8.50;99.90
2647;DHT22;1333;50.958;6.770;2023-05-19T01:48:46;8.50;99.90
2647;DHT22;1333;50.958;6.770;2023-05-19T01:51:12;8.50;99.90
2647;DHT22;1333;50.958;6.770;2023-05-19T01:53:37;8.40;99.90
2647;DHT22;1333;50.958;6.770;2023-05-19T01:56:04;8.40;99.90
2647;DHT22;1333;50.958;6.770;2023-05-19T01:58:47;8.40;99.90
2647;DHT22;1333;50.958;6.770;2023-05-19T02:02:15;8.40;99.90
2647;DHT22;1333;50.958;6.770;2023-05-19T02:04:35;8.30;99.90
2647;DHT22;1333;50.958;6.770;2023-05-19T02:07:20;8.30;99.90
2647;DHT22;1333;50.958;6.770;2023-05-19T02:10:04;8.30;99.90
2647;DHT22;1333;50.958;6.770;2023-05-19T02:12:37;8.20;99.90
2647;DHT22;1333;50.958;6.770;2023-05-19T02:15:06;8.20;99.90
2647;DHT22;1333;50.958;6.770;2023-05-19T02:17:39;8.20;99.90
2647;DHT22;1333;50.958;6.770;2023-05-19T02:20:06;8.20;99.90
2647;DHT22;1333;50.958;6.770;2023-05-19T02:22:34;8.20;99.90
2647;DHT22;1333;50.958;6.770;2023-05-19T02:25:00;8.20;99.90
2647;DHT22;1333;50.958;6.770;2023-05-19T02:27:26;8.20;99.90
2647;DHT22;1333;50.958;6.770;2023-05-19T02:29:51;8.10;99.90
2647;DHT22;1333;50.958;6.770;2023-05-19T02:32:17;8.10;99.90
2647;DHT22;1333;50.958;6.770;2023-05-19T02:34:43;8.10;99.90
2647;DHT22;1333;50.958;6.770;2023-05-19T02:37:11;8.10;99.90
2647;DHT22;1333;50.958;6.770;2023-05-19T02:39:38;8.10;99.90
2647;DHT22;1333;50.958;6.770;2023-05-19T02:42:03;8.10;99.90
2647;DHT22;1333;50.958;6.770;2023-05-19T02:44:29;8.10;99.90
2647;DHT22;1333;50.958;6.770;2023-05-19T02:46:54;8.10;99.90
2647;DHT22;1333;50.958;6.770;2023-05-19T02:49:20;8.00;99.90
2647;DHT22;1333;50.958;6.770;2023-05-19T02:51:45;8.00;99.90
2647;DHT22;1333;50.958;6.770;2023-05-19T02:54:11;8.00;99.90
2647;DHT22;1333;50.958;6.770;2023-05-19T02:56:36;8.00;99.90
2647;DHT22;1333;50.958;6.770;2023-05-19T02:59:02;8.00;99.90
2647;DHT22;1333;50.958;6.770;2023-05-19T03:01:27;7.90;99.90
2647;DHT22;1333;50.958;6.770;2023-05-19T03:03:53;7.90;99.90
2647;DHT22;1333;50.958;6.770;2023-05-19T03:06:18;7.90;99.90
2647;DHT22;1333;50.958;6.770;2023-05-19T03:08:44;7.90;99.90
2647;DHT22;1333;50.958;6.770;2023-05-19T03:11:09;7.90;99.90
2647;DHT22;1333;50.958;6.770;2023-05-19T03:13:35;7.90;99.90
2647;DHT22;1333;50.958;6.770;2023-05-19T03:16:00;7.90;99.90
2647;DHT22;1333;50.958;6.770;2023-05-19T03:18:27;7.90;99.90
2647;DHT22;1333;50.958;6.770;2023-05-19T03:20:53;7.80;99.90
2647;DHT22;1333;50.958;6.770;2023-05-19T03:23:20;7.80;99.90
2647;DHT22;1333;50.958;6.770;2023-05-19T03:25:45;7.80;99.90
2647;DHT22;1333;50.958;6.770;2023-05-19T03:28:12;7.80;99.90
2647;DHT22;1333;50.958;6.770;2023-05-19T03:30:37;7.80;99.90
2647;DHT22;1333;50.958;6.770;2023-05-19T03:33:03;7.80;99.90
2647;DHT22;1333;50.958;6.770;2023-05-19T03:35:29;7.80;99.90
2647;DHT22;1333;50.958;6.770;2023-05-19T03:37:55;7.80;99.90
2647;DHT22;1333;50.958;6.770;2023-05-19T03:40:20;7.70;99.90
2647;DHT22;1333;50.958;6.770;2023-05-19T03:42:46;7.70;99.90
2647;DHT22;1333;50.958;6.770;2023-05-19T03:45:11;7.70;99.90
2647;DHT22;1333;50.958;6.770;2023-05-19T03:47:37;7.70;99.90
2647;DHT22;1333;50.958;6.770;2023-05-19T03:50:02;7.70;99.90
2647;DHT22;1333;50.958;6.770;2023-05-19T03:52:28;7.70;99.90
2647;DHT22;1333;50.958;6.770;2023-05-19T03:54:53;7.70;99.90
2647;DHT22;1333;50.958;6.770;2023-05-19T03:57:20;7.70;99.90
2647;DHT22;1333;50.958;6.770;2023-05-19T03:59:45;7.80;99.90
2647;DHT22;1333;50.958;6.770;2023-05-19T04:02:11;7.80;99.90
2647;DHT22;1333;50.958;6.770;2023-05-19T04:04:36;7.80;99.90
2647;DHT22;1333;50.958;6.770;2023-05-19T04:07:02;7.80;99.90
2647;DHT22;1333;50.958;6.770;2023-05-19T04:09:28;7.80;99.90
2647;DHT22;1333;50.958;6.770;2023-05-19T04:11:56;7.90;99.90
2647;DHT22;1333;50.958;6.770;2023-05-19T04:14:21;7.90;99.90
2647;DHT22;1333;50.958;6.770;2023-05-19T04:16:47;7.90;99.90
2647;DHT22;1333;50.958;6.770;2023-05-19T04:19:13;8.00;99.90
2647;DHT22;1333;50.958;6.770;2023-05-19T04:21:38;8.00;99.90
2647;DHT22;1333;50.958;6.770;2023-05-19T04:24:04;8.10;99.90
2647;DHT22;1333;50.958;6.770;2023-05-19T04:26:30;8.10;99.90
2647;DHT22;1333;50.958;6.770;2023-05-19T04:28:58;8.20;99.90
2647;DHT22;1333;50.958;6.770;2023-05-19T04:31:24;8.20;99.90
2647;DHT22;1333;50.958;6.770;2023-05-19T04:33:51;8.30;99.90
2647;DHT22;1333;50.958;6.770;2023-05-19T04:36:17;8.40;99.90
2647;DHT22;1333;50.958;6.770;2023-05-19T04:38:45;8.40;99.90
2647;DHT22;1333;50.958;6.770;2023-05-19T04:41:11;8.50;99.90
2647;DHT22;1333;50.958;6.770;2023-05-19T04:43:37;8.60;99.90
2647;DHT22;1333;50.958;6.770;2023-05-19T04:46:10;8.70;99.90
2647;DHT22;1333;50.958;6.770;2023-05-19T04:48:36;8.80;99.90
2647;DHT22;1333;50.958;6.770;2023-05-19T04:51:02;8.90;99.90
2647;DHT22;1333;50.958;6.770;2023-05-19T04:53:28;9.00;99.90
2647;DHT22;1333;50.958;6.770;2023-05-19T04:55:54;9.10;99.90
2647;DHT22;1333;50.958;6.770;2023-05-19T04:58:19;9.20;99.90
2647;DHT22;1333;50.958;6.770;2023-05-19T05:00:45;9.30;99.90
2647;DHT22;1333;50.958;6.770;2023-05-19T05:03:10;9.40;99.90
2647;DHT22;1333;50.958;6.770;2023-05-19T05:05:38;9.50;99.90
2647;DHT22;1333;50.958;6.770;2023-05-19T05:08:04;9.60;99.90
2647;DHT22;1333;50.958;6.770;2023-05-19T05:10:30;9.80;99.90
2647;DHT22;1333;50.958;6.770;2023-05-19T05:12:55;9.90;99.90
2647;DHT22;1333;50.958;6.770;2023-05-19T05:15:21;10.00;99.90
2647;DHT22;1333;50.958;6.770;2023-05-19T05:17:48;10.20;99.90
2647;DHT22;1333;50.958;6.770;2023-05-19T05:20:14;10.30;99.90
2647;DHT22;1333;50.958;6.770;2023-05-19T05:22:40;10.50;99.90
2647;DHT22;1333;50.958;6.770;2023-05-19T05:25:07;10.70;99.90
2647;DHT22;1333;50.958;6.770;2023-05-19T05:27:33;10.90;99.90
2647;DHT22;1333;50.958;6.770;2023-05-19T05:29:58;11.20;99.90
2647;DHT22;1333;50.958;6.770;2023-05-19T05:32:24;11.50;99.90
2647;DHT22;1333;50.958;6.770;2023-05-19T05:34:49;12.00;99.90
2647;DHT22;1333;50.958;6.770;2023-05-19T05:37:15;12.60;99.90
2647;DHT22;1333;50.958;6.770;2023-05-19T05:39:40;13.20;99.90
2647;DHT22;1333;50.958;6.770;2023-05-19T05:42:06;13.80;99.90
2647;DHT22;1333;50.958;6.770;2023-05-19T05:44:33;14.50;99.90
2647;DHT22;1333;50.958;6.770;2023-05-19T05:47:00;15.30;99.90
2647;DHT22;1333;50.958;6.770;2023-05-19T05:49:26;16.20;99.90
2647;DHT22;1333;50.958;6.770;2023-05-19T05:51:52;16.90;99.90
2647;DHT22;1333;50.958;6.770;2023-05-19T05:54:20;17.50;99.90
2647;DHT22;1333;50.958;6.770;2023-05-19T05:56:46;18.30;99.90
2647;DHT22;1333;50.958;6.770;2023-05-19T05:59:13;18.90;99.90
2647;DHT22;1333;50.958;6.770;2023-05-19T06:01:38;19.70;99.90
2647;DHT22;1333;50.958;6.770;2023-05-19T06:04:04;20.40;98.60
2647;DHT22;1333;50.958;6.770;2023-05-19T06:06:30;21.20;95.40
2647;DHT22;1333;50.958;6.770;2023-05-19T06:08:55;21.90;92.00
2647;DHT22;1333;50.958;6.770;2023-05-19T06:11:21;22.60;83.40
2647;DHT22;1333;50.958;6.770;2023-05-19T06:13:47;23.40;76.50
2647;DHT22;1333;50.958;6.770;2023-05-19T06:16:12;24.20;66.80
2647;DHT22;1333;50.958;6.770;2023-05-19T06:18:38;25.00;60.00
2647;DHT22;1333;50.958;6.770;2023-05-19T06:21:03;25.70;57.70
2647;DHT22;1333;50.958;6.770;2023-05-19T06:23:29;26.40;53.90
2647;DHT22;1333;50.958;6.770;2023-05-19T06:25:55;27.00;51.70
2647;DHT22;1333;50.958;6.770;2023-05-19T06:28:21;27.50;49.70
2647;DHT22;1333;50.958;6.770;2023-05-19T06:30:46;28.00;47.40
2647;DHT22;1333;50.958;6.770;2023-05-19T06:33:12;28.40;45.00
2647;DHT22;1333;50.958;6.770;2023-05-19T06:35:37;28.80;42.80
2647;DHT22;1333;50.958;6.770;2023-05-19T06:38:03;29.20;41.60
2647;DHT22;1333;50.958;6.770;2023-05-19T06:40:28;29.60;40.30
2647;DHT22;1333;50.958;6.770;2023-05-19T06:42:54;29.90;39.40
2647;DHT22;1333;50.958;6.770;2023-05-19T06:45:20;30.30;38.20
2647;DHT22;1333;50.958;6.770;2023-05-19T06:47:47;30.70;37.50
2647;DHT22;1333;50.958;6.770;2023-05-19T06:50:13;31.10;36.90
2647;DHT22;1333;50.958;6.770;2023-05-19T06:52:39;31.60;36.60
2647;DHT22;1333;50.958;6.770;2023-05-19T06:55:05;32.10;35.70
2647;DHT22;1333;50.958;6.770;2023-05-19T06:57:31;32.50;34.50
2647;DHT22;1333;50.958;6.770;2023-05-19T06:59:56;33.00;34.20
2647;DHT22;1333;50.958;6.770;2023-05-19T07:02:22;33.50;32.90
2647;DHT22;1333;50.958;6.770;2023-05-19T07:04:47;33.70;30.30
2647;DHT22;1333;50.958;6.770;2023-05-19T07:07:13;33.90;30.60
2647;DHT22;1333;50.958;6.770;2023-05-19T07:09:38;34.50;30.40
2647;DHT22;1333;50.958;6.770;2023-05-19T07:12:04;35.00;29.80
2647;DHT22;1333;50.958;6.770;2023-05-19T07:14:30;35.50;29.10
2647;DHT22;1333;50.958;6.770;2023-05-19T07:16:55;35.80;27.80
2647;DHT22;1333;50.958;6.770;2023-05-19T07:19:21;35.80;27.70
2647;DHT22;1333;50.958;6.770;2023-05-19T07:21:48;36.40;27.50
2647;DHT22;1333;50.958;6.770;2023-05-19T07:24:13;36.40;26.50
2647;DHT22;1333;50.958;6.770;2023-05-19T07:26:39;36.80;27.50
2647;DHT22;1333;50.958;6.770;2023-05-19T07:29:05;37.50;26.70
2647;DHT22;1333;50.958;6.770;2023-05-19T07:31:31;38.30;26.60
2647;DHT22;1333;50.958;6.770;2023-05-19T07:33:57;39.00;26.20
2647;DHT22;1333;50.958;6.770;2023-05-19T07:36:22;39.90;25.30
2647;DHT22;1333;50.958;6.770;2023-05-19T07:38:48;40.50;24.60
2647;DHT22;1333;50.958;6.770;2023-05-19T07:41:14;41.10;24.30
2647;DHT22;1333;50.958;6.770;2023-05-19T07:43:39;41.80;23.70
2647;DHT22;1333;50.958;6.770;2023-05-19T07:46:05;42.50;23.50
2647;DHT22;1333;50.958;6.770;2023-05-19T07:48:31;43.10;23.00
2647;DHT22;1333;50.958;6.770;2023-05-19T07:50:56;43.80;22.70
2647;DHT22;1333;50.958;6.770;2023-05-19T07:53:22;44.50;21.80
2647;DHT22;1333;50.958;6.770;2023-05-19T07:55:47;44.40;20.90
2647;DHT22;1333;50.958;6.770;2023-05-19T07:58:13;44.90;21.20
2647;DHT22;1333;50.958;6.770;2023-05-19T08:00:39;45.30;19.90
2647;DHT22;1333;50.958;6.770;2023-05-19T08:03:07;45.50;20.30
2647;DHT22;1333;50.958;6.770;2023-05-19T08:05:34;46.00;20.50
2647;DHT22;1333;50.958;6.770;2023-05-19T08:08:00;46.60;20.30
2647;DHT22;1333;50.958;6.770;2023-05-19T08:10:26;47.30;20.00
2647;DHT22;1333;50.958;6.770;2023-05-19T08:12:51;47.80;19.70
2647;DHT22;1333;50.958;6.770;2023-05-19T08:15:17;48.20;19.20
2647;DHT22;1333;50.958;6.770;2023-05-19T08:17:43;48.70;18.90
2647;DHT22;1333;50.958;6.770;2023-05-19T08:20:09;49.10;19.00
2647;DHT22;1333;50.958;6.770;2023-05-19T08:22:37;49.50;18.60
2647;DHT22;1333;50.958;6.770;2023-05-19T08:25:03;49.80;18.30
2647;DHT22;1333;50.958;6.770;2023-05-19T08:27:31;50.00;17.60
2647;DHT22;1333;50.958;6.770;2023-05-19T08:29:58;50.30;18.20
2647;DHT22;1333;50.958;6.770;2023-05-19T08:32:23;50.60;17.90
2647;DHT22;1333;50.958;6.770;2023-05-19T08:34:49;50.40;16.40
2647;DHT22;1333;50.958;6.770;2023-05-19T08:37:14;50.50;16.80
2647;DHT22;1333;50.958;6.770;2023-05-19T08:39:40;50.80;17.10
2647;DHT22;1333;50.958;6.770;2023-05-19T08:42:06;50.80;16.50
2647;DHT22;1333;50.958;6.770;2023-05-19T08:44:32;51.00;17.20
2647;DHT22;1333;50.958;6.770;2023-05-19T08:47:02;51.40;16.70
2647;DHT22;1333;50.958;6.770;2023-05-19T08:49:32;51.60;16.30
2647;DHT22;1333;50.958;6.770;2023-05-19T08:54:31;52.10;16.60
2647;DHT22;1333;50.958;6.770;2023-05-19T08:56:59;52.40;16.50
2647;DHT22;1333;50.958;6.770;2023-05-19T08:59:25;52.70;16.20
2647;DHT22;1333;50.958;6.770;2023-05-19T09:01:52;52.90;16.20
2647;DHT22;1333;50.958;6.770;2023-05-19T09:04:19;53.00;16.10
2647;DHT22;1333;50.958;6.770;2023-05-19T09:06:45;53.20;15.90
2647;DHT22;1333;50.958;6.770;2023-05-19T09:09:10;53.10;15.00
2647;DHT22;1333;50.958;6.770;2023-05-19T09:11:36;53.10;15.50
2647;DHT22;1333;50.958;6.770;2023-05-19T09:14:03;53.10;15.60
2647;DHT22;1333;50.958;6.770;2023-05-19T09:16:29;53.20;15.40
2647;DHT22;1333;50.958;6.770;2023-05-19T09:18:56;53.40;15.60
2647;DHT22;1333;50.958;6.770;2023-05-19T09:21:31;53.60;15.80
2647;DHT22;1333;50.958;6.770;2023-05-19T09:24:04;53.90;15.60
2647;DHT22;1333;50.958;6.770;2023-05-19T09:26:37;54.10;15.30
2647;DHT22;1333;50.958;6.770;2023-05-19T09:29:13;54.30;15.50
2647;DHT22;1333;50.958;6.770;2023-05-19T09:31:49;54.60;15.60
2647;DHT22;1333;50.958;6.770;2023-05-19T09:34:15;54.80;15.50
2647;DHT22;1333;50.958;6.770;2023-05-19T09:36:40;55.00;15.00
2647;DHT22;1333;50.958;6.770;2023-05-19T09:39:16;55.00;15.10
2647;DHT22;1333;50.958;6.770;2023-05-19T09:41:43;54.60;14.90
2647;DHT22;1333;50.958;6.770;2023-05-19T09:44:27;54.50;15.70
2647;DHT22;1333;50.958;6.770;2023-05-19T09:46:56;54.50;15.60
2647;DHT22;1333;50.958;6.770;2023-05-19T09:49:26;54.70;15.60
2647;DHT22;1333;50.958;6.770;2023-05-19T09:51:58;54.80;15.70
2647;DHT22;1333;50.958;6.770;2023-05-19T09:54:24;55.10;15.40
2647;DHT22;1333;50.958;6.770;2023-05-19T09:57:04;55.20;15.20
2647;DHT22;1333;50.958;6.770;2023-05-19T09:59:32;55.50;15.20
2647;DHT22;1333;50.958;6.770;2023-05-19T10:01:58;55.80;15.20
2647;DHT22;1333;50.958;6.770;2023-05-19T10:04:26;55.60;15.00
2647;DHT22;1333;50.958;6.770;2023-05-19T10:06:53;53.60;14.60
2647;DHT22;1333;50.958;6.770;2023-05-19T10:09:23;51.30;15.10
2647;DHT22;1333;50.958;6.770;2023-05-19T10:11:52;48.90;15.60
2647;DHT22;1333;50.958;6.770;2023-05-19T10:14:21;47.60;16.30
2647;DHT22;1333;50.958;6.770;2023-05-19T10:16:50;48.10;16.80
2647;DHT22;1333;50.958;6.770;2023-05-19T10:19:19;48.60;16.60
2647;DHT22;1333;50.958;6.770;2023-05-19T10:21:45;49.00;15.90
2647;DHT22;1333;50.958;6.770;2023-05-19T10:24:10;49.20;15.80
2647;DHT22;1333;50.958;6.770;2023-05-19T10:26:37;50.10;16.50
2647;DHT22;1333;50.958;6.770;2023-05-19T10:29:04;51.40;16.70
2647;DHT22;1333;50.958;6.770;2023-05-19T10:31:30;52.50;15.90
2647;DHT22;1333;50.958;6.770;2023-05-19T10:34:21;53.40;15.10
2647;DHT22;1333;50.958;6.770;2023-05-19T10:36:53;54.40;15.40
2647;DHT22;1333;50.958;6.770;2023-05-19T10:39:28;55.50;15.10
2647;DHT22;1333;50.958;6.770;2023-05-19T10:42:08;55.40;14.50
2647;DHT22;1333;50.958;6.770;2023-05-19T10:45:03;55.40;14.70
2647;DHT22;1333;50.958;6.770;2023-05-19T10:47:29;55.60;14.40
2647;DHT22;1333;50.958;6.770;2023-05-19T10:49:55;54.70;14.60
2647;DHT22;1333;50.958;6.770;2023-05-19T10:52:22;54.00;13.60
2647;DHT22;1333;50.958;6.770;2023-05-19T10:54:50;53.40;14.20
2647;DHT22;1333;50.958;6.770;2023-05-19T10:57:16;52.40;14.40
2647;DHT22;1333;50.958;6.770;2023-05-19T10:59:42;50.10;14.60
2647;DHT22;1333;50.958;6.770;2023-05-19T11:02:40;47.70;15.40
2647;DHT22;1333;50.958;6.770;2023-05-19T11:05:14;47.80;16.40
2647;DHT22;1333;50.958;6.770;2023-05-19T11:07:43;49.80;16.50
2647;DHT22;1333;50.958;6.770;2023-05-19T11:10:22;51.60;15.80
2647;DHT22;1333;50.958;6.770;2023-05-19T11:12:48;53.20;15.10
2647;DHT22;1333;50.958;6.770;2023-05-19T11:15:15;54.20;14.90
2647;DHT22;1333;50.958;6.770;2023-05-19T11:17:43;55.20;15.10
2647;DHT22;1333;50.958;6.770;2023-05-19T11:20:23;55.70;14.80
2647;DHT22;1333;50.958;6.770;2023-05-19T11:23:07;55.60;14.90
2647;DHT22;1333;50.958;6.770;2023-05-19T11:25:41;55.00;14.80
2647;DHT22;1333;50.958;6.770;2023-05-19T11:28:07;53.20;14.40
2647;DHT22;1333;50.958;6.770;2023-05-19T11:30:32;53.40;14.70
2647;DHT22;1333;50.958;6.770;2023-05-19T11:32:58;54.30;15.10
2647;DHT22;1333;50.958;6.770;2023-05-19T11:35:24;55.20;14.80
2647;DHT22;1333;50.958;6.770;2023-05-19T11:37:53;55.90;14.50
2647;DHT22;1333;50.958;6.770;2023-05-19T11:40:20;56.20;14.50
2647;DHT22;1333;50.958;6.770;2023-05-19T11:42:46;56.50;14.60
2647;DHT22;1333;50.958;6.770;2023-05-19T11:45:11;56.40;14.40
2647;DHT22;1333;50.958;6.770;2023-05-19T11:47:37;56.20;14.20
2647;DHT22;1333;50.958;6.770;2023-05-19T11:50:03;55.90;14.30
2647;DHT22;1333;50.958;6.770;2023-05-19T11:52:29;55.70;14.20
2647;DHT22;1333;50.958;6.770;2023-05-19T11:54:58;56.00;14.30
2647;DHT22;1333;50.958;6.770;2023-05-19T11:57:25;56.40;14.50
2647;DHT22;1333;50.958;6.770;2023-05-19T11:59:51;56.80;14.30
2647;DHT22;1333;50.958;6.770;2023-05-19T12:02:20;57.00;14.00
2647;DHT22;1333;50.958;6.770;2023-05-19T12:04:49;56.50;14.10
2647;DHT22;1333;50.958;6.770;2023-05-19T12:07:15;56.30;14.00
2647;DHT22;1333;50.958;6.770;2023-05-19T12:09:47;56.10;13.70
2647;DHT22;1333;50.958;6.770;2023-05-19T12:12:15;56.20;13.80
2647;DHT22;1333;50.958;6.770;2023-05-19T12:14:41;56.10;13.60
2647;DHT22;1333;50.958;6.770;2023-05-19T12:17:12;56.30;14.00
2647;DHT22;1333;50.958;6.770;2023-05-19T12:19:38;56.10;13.50
2647;DHT22;1333;50.958;6.770;2023-05-19T12:22:05;56.30;13.80
2647;DHT22;1333;50.958;6.770;2023-05-19T12:24:32;56.10;13.80
2647;DHT22;1333;50.958;6.770;2023-05-19T12:27:24;55.50;14.00
2647;DHT22;1333;50.958;6.770;2023-05-19T12:29:54;54.50;14.00
2647;DHT22;1333;50.958;6.770;2023-05-19T12:32:25;54.20;14.20
2647;DHT22;1333;50.958;6.770;2023-05-19T12:34:51;54.10;14.30
2647;DHT22;1333;50.958;6.770;2023-05-19T12:37:17;54.10;14.20
2647;DHT22;1333;50.958;6.770;2023-05-19T12:39:44;54.30;14.10
2647;DHT22;1333;50.958;6.770;2023-05-19T12:42:10;53.40;14.10
2647;DHT22;1333;50.958;6.770;2023-05-19T12:44:45;53.20;14.90
2647;DHT22;1333;50.958;6.770;2023-05-19T12:47:11;53.20;14.10
2647;DHT22;1333;50.958;6.770;2023-05-19T12:49:55;53.20;14.40
2647;DHT22;1333;50.958;6.770;2023-05-19T12:52:26;53.10;14.20
2647;DHT22;1333;50.958;6.770;2023-05-19T12:54:58;53.20;14.30
2647;DHT22;1333;50.958;6.770;2023-05-19T12:57:26;53.20;14.20
2647;DHT22;1333;50.958;6.770;2023-05-19T12:59:52;53.00;14.20
2647;DHT22;1333;50.958;6.770;2023-05-19T13:02:18;52.40;14.30
2647;DHT22;1333;50.958;6.770;2023-05-19T13:04:43;51.70;14.30
2647;DHT22;1333;50.958;6.770;2023-05-19T13:07:09;51.30;14.20
2647;DHT22;1333;50.958;6.770;2023-05-19T13:09:34;51.00;14.10
2647;DHT22;1333;50.958;6.770;2023-05-19T13:12:01;50.80;14.40
2647;DHT22;1333;50.958;6.770;2023-05-19T13:14:26;50.40;14.40
2647;DHT22;1333;50.958;6.770;2023-05-19T13:16:52;49.90;14.20
2647;DHT22;1333;50.958;6.770;2023-05-19T13:19:18;49.60;14.50
2647;DHT22;1333;50.958;6.770;2023-05-19T13:21:44;49.30;15.10
2647;DHT22;1333;50.958;6.770;2023-05-19T13:24:15;48.70;15.20
2647;DHT22;1333;50.958;6.770;2023-05-19T13:26:41;47.30;14.90
2647;DHT22;1333;50.958;6.770;2023-05-19T13:29:06;44.80;15.20
2647;DHT22;1333;50.958;6.770;2023-05-19T13:31:32;42.60;16.10
2647;DHT22;1333;50.958;6.770;2023-05-19T13:33:58;41.00;16.60
2647;DHT22;1333;50.958;6.770;2023-05-19T13:36:24;39.50;17.40
2647;DHT22;1333;50.958;6.770;2023-05-19T13:38:52;38.30;18.20
2647;DHT22;1333;50.958;6.770;2023-05-19T13:41:24;37.20;19.50
2647;DHT22;1333;50.958;6.770;2023-05-19T13:43:51;36.00;20.10
2647;DHT22;1333;50.958;6.770;2023-05-19T13:46:16;34.90;20.60
2647;DHT22;1333;50.958;6.770;2023-05-19T13:48:42;34.10;21.60
2647;DHT22;1333;50.958;6.770;2023-05-19T13:51:07;33.20;22.20
2647;DHT22;1333;50.958;6.770;2023-05-19T13:53:33;32.60;23.60
2647;DHT22;1333;50.958;6.770;2023-05-19T13:55:59;32.00;24.20
2647;DHT22;1333;50.958;6.770;2023-05-19T13:58:25;31.60;24.20
2647;DHT22;1333;50.958;6.770;2023-05-19T14:00:50;31.20;24.30
2647;DHT22;1333;50.958;6.770;2023-05-19T14:03:19;30.80;24.50
2647;DHT22;1333;50.958;6.770;2023-05-19T14:05:47;30.50;25.40
2647;DHT22;1333;50.958;6.770;2023-05-19T14:08:12;30.30;26.30
2647;DHT22;1333;50.958;6.770;2023-05-19T14:10:38;30.10;26.10
2647;DHT22;1333;50.958;6.770;2023-05-19T14:13:04;30.00;26.20
2647;DHT22;1333;50.958;6.770;2023-05-19T14:15:29;29.90;26.50
2647;DHT22;1333;50.958;6.770;2023-05-19T14:17:58;29.70;26.30
2647;DHT22;1333;50.958;6.770;2023-05-19T14:20:24;29.70;26.70
2647;DHT22;1333;50.958;6.770;2023-05-19T14:22:49;29.60;26.30
2647;DHT22;1333;50.958;6.770;2023-05-19T14:25:15;29.50;26.40
2647;DHT22;1333;50.958;6.770;2023-05-19T14:27:40;29.40;26.60
2647;DHT22;1333;50.958;6.770;2023-05-19T14:30:06;29.20;26.70
2647;DHT22;1333;50.958;6.770;2023-05-19T14:32:32;29.10;27.00
2647;DHT22;1333;50.958;6.770;2023-05-19T14:34:57;29.00;27.10
2647;DHT22;1333;50.958;6.770;2023-05-19T14:37:23;28.90;27.60
2647;DHT22;1333;50.958;6.770;2023-05-19T14:39:51;28.80;27.90
2647;DHT22;1333;50.958;6.770;2023-05-19T14:42:17;28.80;28.00
2647;DHT22;1333;50.958;6.770;2023-05-19T14:44:42;28.80;27.70
2647;DHT22;1333;50.958;6.770;2023-05-19T14:47:08;28.60;27.30
2647;DHT22;1333;50.958;6.770;2023-05-19T14:49:35;28.30;26.70
2647;DHT22;1333;50.958;6.770;2023-05-19T14:52:00;28.10;27.10
2647;DHT22;1333;50.958;6.770;2023-05-19T14:54:26;27.90;27.70
2647;DHT22;1333;50.958;6.770;2023-05-19T14:56:53;27.90;28.40
2647;DHT22;1333;50.958;6.770;2023-05-19T14:59:18;27.80;28.10
2647;DHT22;1333;50.958;6.770;2023-05-19T15:01:44;27.90;28.30
2647;DHT22;1333;50.958;6.770;2023-05-19T15:04:09;28.00;28.30
2647;DHT22;1333;50.958;6.770;2023-05-19T15:06:35;28.10;28.30
2647;DHT22;1333;50.958;6.770;2023-05-19T15:09:00;28.10;28.20
2647;DHT22;1333;50.958;6.770;2023-05-19T15:11:26;28.30;28.80
2647;DHT22;1333;50.958;6.770;2023-05-19T15:13:51;28.40;28.70
2647;DHT22;1333;50.958;6.770;2023-05-19T15:16:17;28.40;28.50
2647;DHT22;1333;50.958;6.770;2023-05-19T15:18:43;28.40;28.80
2647;DHT22;1333;50.958;6.770;2023-05-19T15:21:08;28.10;28.10
2647;DHT22;1333;50.958;6.770;2023-05-19T15:23:34;27.90;28.00
2647;DHT22;1333;50.958;6.770;2023-05-19T15:25:59;27.60;28.00
2647;DHT22;1333;50.958;6.770;2023-05-19T15:28:25;27.40;28.10
2647;DHT22;1333;50.958;6.770;2023-05-19T15:30:51;27.40;28.60
2647;DHT22;1333;50.958;6.770;2023-05-19T15:33:16;27.30;28.80
2647;DHT22;1333;50.958;6.770;2023-05-19T15:35:42;27.30;28.90
2647;DHT22;1333;50.958;6.770;2023-05-19T15:38:07;27.30;29.10
2647;DHT22;1333;50.958;6.770;2023-05-19T15:40:33;27.40;29.20
2647;DHT22;1333;50.958;6.770;2023-05-19T15:42:59;27.40;29.40
2647;DHT22;1333;50.958;6.770;2023-05-19T15:45:25;27.60;29.90
2647;DHT22;1333;50.958;6.770;2023-05-19T15:47:50;27.60;29.40
2647;DHT22;1333;50.958;6.770;2023-05-19T15:50:16;27.50;29.20
2647;DHT22;1333;50.958;6.770;2023-05-19T15:52:42;27.40;28.90
2647;DHT22;1333;50.958;6.770;2023-05-19T15:55:08;27.20;28.40
2647;DHT22;1333;50.958;6.770;2023-05-19T15:57:33;27.10;28.80
2647;DHT22;1333;50.958;6.770;2023-05-19T15:59:59;26.90;29.00
2647;DHT22;1333;50.958;6.770;2023-05-19T16:02:24;26.70;28.90
2647;DHT22;1333;50.958;6.770;2023-05-19T16:04:50;26.50;29.00
2647;DHT22;1333;50.958;6.770;2023-05-19T16:07:15;26.30;29.40
2647;DHT22;1333;50.958;6.770;2023-05-19T16:09:41;26.20;29.50
2647;DHT22;1333;50.958;6.770;2023-05-19T16:12:07;26.00;29.40
2647;DHT22;1333;50.958;6.770;2023-05-19T16:14:32;25.80;29.30
2647;DHT22;1333;50.958;6.770;2023-05-19T16:17:01;25.60;29.50